Time;durP1;ratioP1;P1;durP2;ratioP2;P2;SDS_P1;SDS_P2;PMS_P1;PMS_P2;Temp;Humidity;BMP_temperature;BMP_pressure;BME280_temperature;BME280_humidity;BME280_pressure;Samples;Min_cycle;Max_cycle;Signal;HPM_P1;HPM_P2
2021/10/26 00:00:37;;;;;;;9.40;6.83;;;;;;;10.74;80.71;101737.16;5011008;28;20298;-74
2021/10/26 00:03:03;;;;;;;7.77;6.53;;;;;;;10.71;81.28;101747.28;5011339;28;20219;-73
2021/10/26 00:05:29;;;;;;;10.40;7.33;;;;;;;10.73;80.34;101745.66;5009210;28;20234;-73
2021/10/26 00:07:54;;;;;;;9.47;7.23;;;;;;;10.72;80.48;101741.31;5011225;28;20203;-73
2021/10/26 00:10:20;;;;;;;8.73;7.00;;;;;;;10.71;80.77;101740.47;5009645;28;20241;-73
2021/10/26 00:12:45;;;;;;;8.47;7.33;;;;;;;10.71;80.87;101740.47;5010121;28;20560;-73
2021/10/26 00:15:11;;;;;;;12.60;7.83;;;;;;;10.67;81.12;101743.75;5011446;28;20285;-73
2021/10/26 00:17:36;;;;;;;11.17;8.27;;;;;;;10.67;81.36;101735.19;5010225;28;20195;-73
2021/10/26 00:20:06;;;;;;;10.67;8.50;;;;;;;10.67;81.41;101733.50;5009925;28;20192;-73
2021/10/26 00:22:32;;;;;;;14.00;9.90;;;;;;;10.69;81.03;101728.44;5010532;28;20184;-73
2021/10/26 00:24:57;;;;;;;17.07;12.33;;;;;;;10.68;80.94;101730.13;5009312;28;20810;-73
2021/10/26 00:27:23;;;;;;;14.67;10.90;;;;;;;10.66;81.43;101733.44;5010247;28;20214;-74
2021/10/26 00:29:48;;;;;;;10.60;8.97;;;;;;;10.65;81.43;101732.56;5010449;28;20261;-73
2021/10/26 00:32:15;;;;;;;11.43;9.03;;;;;;;10.59;81.54;101732.38;5010804;28;20187;-73
2021/10/26 00:34:41;;;;;;;14.17;9.77;;;;;;;10.53;81.89;101732.19;5008623;28;20199;-73
2021/10/26 00:37:06;;;;;;;10.47;9.37;;;;;;;10.53;82.13;101742.41;5007496;28;20588;-73
2021/10/26 00:39:31;;;;;;;12.27;9.63;;;;;;;10.54;81.44;101722.78;5009737;28;20566;-74
2021/10/26 00:41:57;;;;;;;12.47;9.43;;;;;;;10.53;81.95;101729.63;5008888;28;20215;-73
2021/10/26 00:44:23;;;;;;;12.00;8.30;;;;;;;10.51;82.59;101723.56;5008638;28;20313;-73
2021/10/26 00:46:49;;;;;;;9.53;8.07;;;;;;;10.52;82.34;101727.88;5009425;28;20270;-73
2021/10/26 00:49:15;;;;;;;11.27;8.47;;;;;;;10.51;82.35;101733.78;5006751;28;20195;-73
2021/10/26 00:51:41;;;;;;;10.03;8.80;;;;;;;10.52;81.89;101733.00;5009141;28;20850;-73
2021/10/26 00:54:06;;;;;;;13.87;9.10;;;;;;;10.53;82.06;101733.84;5009247;28;20247;-73
2021/10/26 00:56:35;;;;;;;12.40;9.40;;;;;;;10.53;82.29;101736.41;5012993;28;20379;-74
2021/10/26 00:59:01;;;;;;;13.10;9.20;;;;;;;10.52;82.48;101730.44;5009476;28;20286;-74
2021/10/26 01:01:31;;;;;;;9.97;8.83;;;;;;;10.47;82.62;101728.53;5009543;28;20207;-73
2021/10/26 01:03:56;;;;;;;13.17;8.87;;;;;;;10.50;82.54;101720.97;5007799;28;20707;-73
2021/10/26 01:06:22;;;;;;;13.43;9.20;;;;;;;10.50;83.03;101724.38;5009009;28;20219;-74
2021/10/26 01:08:49;;;;;;;11.70;8.90;;;;;;;10.50;82.60;101729.50;5008701;28;20289;-73
2021/10/26 01:11:15;;;;;;;12.87;9.83;;;;;;;10.44;83.38;101728.41;5008474;28;20205;-74
2021/10/26 01:13:45;;;;;;;13.17;8.97;;;;;;;10.47;83.56;101734.50;5008815;28;20203;-73
2021/10/26 01:16:11;;;;;;;11.47;10.03;;;;;;;10.47;82.92;101729.38;5008301;28;20250;-73
2021/10/26 01:18:37;;;;;;;11.00;8.83;;;;;;;10.48;83.27;101731.16;5023109;28;20183;-73
2021/10/26 01:21:02;;;;;;;12.07;8.90;;;;;;;10.50;83.34;101737.19;5009196;28;20211;-73
2021/10/26 01:23:29;;;;;;;11.87;9.40;;;;;;;10.49;83.55;101734.56;5009167;28;20242;-73
2021/10/26 01:25:55;;;;;;;11.03;9.23;;;;;;;10.47;83.62;101738.78;5008698;28;20657;-73
2021/10/26 01:28:22;;;;;;;13.23;10.47;;;;;;;10.47;83.89;101731.94;5008457;28;20242;-74
2021/10/26 01:30:48;;;;;;;15.63;11.93;;;;;;;10.48;84.26;101735.41;5008923;28;20653;-73
2021/10/26 01:33:32;;;;;;;14.63;11.00;;;;;;;10.47;84.77;101739.63;5008159;28;20300;-73
2021/10/26 01:36:20;;;;;;;16.20;11.43;;;;;;;10.49;84.98;101734.56;4995405;28;20199;-73
2021/10/26 01:38:46;;;;;;;15.80;12.30;;;;;;;10.51;85.31;101732.94;5006181;28;20573;-74
2021/10/26 01:41:12;;;;;;;16.37;12.67;;;;;;;10.48;85.14;101740.50;5008448;28;20203;-74
2021/10/26 01:43:38;;;;;;;16.67;12.37;;;;;;;10.48;85.44;101736.28;5007092;28;20670;-74
2021/10/26 01:46:04;;;;;;;15.90;13.00;;;;;;;10.50;85.61;101741.47;5008417;28;20183;-73
2021/10/26 01:48:36;;;;;;;19.07;13.17;;;;;;;10.49;85.72;101738.00;5005260;28;20183;-73
2021/10/26 01:51:03;;;;;;;15.97;13.07;;;;;;;10.50;85.72;101739.75;5024772;28;20179;-74
2021/10/26 01:53:28;;;;;;;18.53;13.67;;;;;;;10.48;86.38;101741.41;5006731;28;20219;-74
2021/10/26 01:55:55;;;;;;;16.37;13.33;;;;;;;10.50;86.79;101737.19;5023166;28;20282;-73
2021/10/26 01:58:23;;;;;;;16.43;12.40;;;;;;;10.51;86.47;101738.91;5024076;28;20191;-74
2021/10/26 02:01:06;;;;;;;17.57;13.17;;;;;;;10.49;86.48;101732.88;5006395;28;20722;-73
2021/10/26 02:03:32;;;;;;;19.67;14.00;;;;;;;10.50;86.52;101736.34;4990943;28;20210;-74
2021/10/26 02:05:58;;;;;;;16.97;12.73;;;;;;;10.50;86.73;101732.06;5005166;28;20190;-73
2021/10/26 02:08:23;;;;;;;19.37;14.40;;;;;;;10.51;86.51;101728.69;5009569;28;20171;-74
2021/10/26 02:10:48;;;;;;;17.27;14.63;;;;;;;10.50;86.71;101731.22;5007935;28;20246;-73
2021/10/26 02:13:14;;;;;;;22.90;15.33;;;;;;;10.49;86.71;101729.44;5008163;28;20642;-72
2021/10/26 02:15:41;;;;;;;17.27;13.33;;;;;;;10.50;87.12;101733.78;5008075;28;20286;-74
2021/10/26 02:18:07;;;;;;;21.00;15.80;;;;;;;10.49;87.21;101732.88;5008628;28;20198;-74
2021/10/26 02:20:33;;;;;;;21.03;15.77;;;;;;;10.50;87.16;101734.63;5006541;28;20634;-73
2021/10/26 02:22:58;;;;;;;23.87;16.67;;;;;;;10.52;87.05;101735.56;5007822;28;20187;-72
2021/10/26 02:25:25;;;;;;;21.90;17.37;;;;;;;10.51;87.65;101740.63;5008343;28;20282;-73
2021/10/26 02:27:50;;;;;;;25.80;18.53;;;;;;;10.53;87.33;101741.53;5007694;28;20283;-72
2021/10/26 02:30:16;;;;;;;29.00;21.83;;;;;;;10.57;87.76;101739.16;5008117;28;20607;-73
2021/10/26 02:32:41;;;;;;;28.37;21.60;;;;;;;10.59;88.11;101734.06;5007778;28;20187;-73
2021/10/26 02:35:07;;;;;;;29.93;21.93;;;;;;;10.62;88.04;101739.28;5005820;28;20257;-73
2021/10/26 02:37:32;;;;;;;32.50;23.27;;;;;;;10.62;88.43;101740.16;5007234;28;20187;-73
2021/10/26 02:39:58;;;;;;;34.50;25.30;;;;;;;10.70;88.55;101730.19;5008110;28;20607;-73
2021/10/26 02:42:23;;;;;;;34.27;24.83;;;;;;;10.70;88.90;101733.59;5006547;28;20695;-73
2021/10/26 02:44:55;;;;;;;40.13;26.40;;;;;;;10.71;88.62;101732.78;5007952;28;20207;-74
2021/10/26 02:47:20;;;;;;;40.33;28.00;;;;;;;10.74;88.60;101732.03;5009113;28;20225;-73
2021/10/26 02:49:48;;;;;;;41.87;28.37;;;;;;;10.77;88.83;101734.66;5005671;28;20195;-73
2021/10/26 02:52:13;;;;;;;39.90;28.80;;;;;;;10.78;88.76;101731.31;5007658;28;20184;-73
2021/10/26 02:54:39;;;;;;;42.47;29.83;;;;;;;10.81;88.78;101726.25;5006947;28;20655;-73
2021/10/26 02:57:05;;;;;;;43.30;30.43;;;;;;;10.81;88.72;101728.81;5007158;28;20196;-72
2021/10/26 02:59:30;;;;;;;41.53;29.60;;;;;;;10.80;88.89;101724.53;5006860;28;20191;-73
2021/10/26 03:01:56;;;;;;;47.20;32.37;;;;;;;10.82;88.94;101733.13;5006455;28;20207;-72
2021/10/26 03:04:21;;;;;;;49.37;33.23;;;;;;;10.86;88.99;101734.97;5006125;28;20229;-72
2021/10/26 03:06:48;;;;;;;47.17;32.70;;;;;;;10.91;89.14;101728.28;4990777;28;20283;-73
2021/10/26 03:09:14;;;;;;;46.33;32.60;;;;;;;10.90;88.79;101729.13;4988997;28;20270;-74
2021/10/26 03:11:40;;;;;;;43.23;32.30;;;;;;;10.91;88.94;101724.06;5007972;28;20214;-74
2021/10/26 03:14:06;;;;;;;44.60;31.23;;;;;;;10.90;88.78;101729.13;5026086;28;20211;-74
2021/10/26 03:16:32;;;;;;;44.40;32.00;;;;;;;10.92;88.61;101724.94;5009895;28;20191;-74
2021/10/26 03:18:57;;;;;;;46.70;32.87;;;;;;;10.93;88.76;101724.97;5010509;28;20192;-74
2021/10/26 03:21:22;;;;;;;43.90;30.60;;;;;;;10.95;88.56;101731.03;5011191;28;20207;-73
2021/10/26 03:23:48;;;;;;;48.47;32.77;;;;;;;10.93;88.31;101724.97;5020823;28;20587;-73
2021/10/26 03:26:14;;;;;;;49.50;34.20;;;;;;;10.93;88.83;101722.38;5009181;28;20206;-74
2021/10/26 03:28:40;;;;;;;47.17;32.50;;;;;;;10.97;88.51;101728.50;5025904;28;20197;-73
2021/10/26 03:31:06;;;;;;;46.23;33.30;;;;;;;10.98;88.27;101730.25;5003851;28;20196;-73
2021/10/26 03:33:51;;;;;;;46.33;33.17;;;;;;;10.97;88.66;101726.78;5001644;28;20577;-73
2021/10/26 03:36:17;;;;;;;45.73;32.87;;;;;;;10.97;88.64;101723.38;5010144;28;20225;-73
2021/10/26 03:38:43;;;;;;;50.67;32.63;;;;;;;10.97;88.69;101721.69;5010674;28;20649;-73
2021/10/26 03:41:09;;;;;;;46.43;33.67;;;;;;;10.96;88.54;101719.94;5010570;28;20699;-73
2021/10/26 03:43:34;;;;;;;46.57;33.17;;;;;;;10.95;88.50;101720.75;5020057;28;20207;-73
2021/10/26 03:46:01;;;;;;;48.27;33.40;;;;;;;10.96;87.82;101711.41;5011653;28;20568;-73
2021/10/26 03:48:27;;;;;;;48.40;32.97;;;;;;;10.96;88.60;101714.81;5011778;28;20215;-74
2021/10/26 03:50:53;;;;;;;48.77;34.27;;;;;;;10.96;88.61;101711.41;5010818;28;20823;-73
2021/10/26 03:53:18;;;;;;;48.33;32.33;;;;;;;10.97;88.50;101706.28;5010309;28;20218;-73
2021/10/26 03:55:43;;;;;;;44.77;32.80;;;;;;;10.99;88.50;101702.09;5024303;28;20246;-74
2021/10/26 03:58:10;;;;;;;45.63;34.60;;;;;;;11.00;87.96;101702.97;5008786;28;20195;-74
2021/10/26 04:00:36;;;;;;;47.90;34.60;;;;;;;11.00;88.23;101710.66;5010309;28;20215;-74
2021/10/26 04:03:18;;;;;;;47.47;34.03;;;;;;;10.97;88.36;101711.41;5023424;28;20204;-74
2021/10/26 04:05:49;;;;;;;45.87;32.53;;;;;;;10.97;88.35;101710.56;5007181;28;20687;-73
2021/10/26 04:10:55;;;;;;;44.13;32.27;;;;;;;10.88;88.00;101711.13;5010179;28;20719;-73
2021/10/26 04:13:22;;;;;;;45.10;33.27;;;;;;;10.80;88.17;101714.28;5008514;28;20214;-73
2021/10/26 04:15:49;;;;;;;43.93;31.80;;;;;;;10.78;87.51;101705.69;5009336;28;20193;-73
2021/10/26 04:18:15;;;;;;;43.60;31.80;;;;;;;10.75;87.84;101711.59;5025820;28;20252;-74
2021/10/26 04:20:41;;;;;;;45.97;33.83;;;;;;;10.73;88.23;101712.34;5025494;28;20691;-73
2021/10/26 04:23:07;;;;;;;47.73;33.73;;;;;;;10.68;87.94;101712.19;5025363;28;20282;-74
2021/10/26 04:25:32;;;;;;;41.90;31.37;;;;;;;10.65;87.91;101722.31;5007514;28;20297;-73
2021/10/26 04:27:59;;;;;;;42.83;31.73;;;;;;;10.63;87.90;101711.16;5009385;28;20245;-74
2021/10/26 04:30:25;;;;;;;41.60;30.87;;;;;;;10.68;88.06;101708.75;5010123;28;20582;-75
2021/10/26 04:32:51;;;;;;;43.93;31.33;;;;;;;10.65;87.80;101696.72;5009440;28;20249;-74
2021/10/26 04:35:16;;;;;;;44.47;31.70;;;;;;;10.66;88.05;101705.28;4989161;28;20192;-74
2021/10/26 04:37:42;;;;;;;43.50;31.13;;;;;;;10.67;87.97;101709.56;5009450;28;20699;-74
2021/10/26 04:40:08;;;;;;;38.80;29.60;;;;;;;10.68;88.00;101726.66;5026307;28;20195;-74
2021/10/26 04:42:36;;;;;;;44.70;31.60;;;;;;;10.69;88.05;101726.72;5009783;28;20186;-73
2021/10/26 04:45:05;;;;;;;42.63;28.93;;;;;;;10.71;88.37;101731.91;5028251;28;20238;-73
2021/10/26 04:47:30;;;;;;;43.80;30.67;;;;;;;10.75;87.88;101737.19;5046075;28;20186;-73
2021/10/26 04:49:55;;;;;;;41.10;29.00;;;;;;;10.79;88.21;101736.44;5013274;28;20290;-73
2021/10/26 04:52:22;;;;;;;39.77;29.27;;;;;;;10.79;87.87;101739.00;4999199;28;20553;-73
2021/10/26 04:54:47;;;;;;;40.67;29.10;;;;;;;10.80;88.07;101742.47;5004478;28;20635;-73
2021/10/26 04:57:15;;;;;;;35.20;27.90;;;;;;;10.78;87.89;101739.84;4993072;28;20179;-73
2021/10/26 05:00:11;;;;;;;37.70;28.40;;;;;;;10.79;88.25;101741.56;4997940;28;20608;-74
2021/10/26 05:02:38;;;;;;;38.77;27.60;;;;;;;10.81;87.50;101749.31;5024029;28;20179;-73
2021/10/26 05:05:05;;;;;;;34.93;26.60;;;;;;;10.83;87.60;101752.81;5009375;28;20203;-73
2021/10/26 05:07:30;;;;;;;33.33;26.87;;;;;;;10.84;87.57;101750.31;5008993;28;20653;-73
2021/10/26 05:09:57;;;;;;;37.93;27.77;;;;;;;10.85;87.98;101751.16;5009226;28;20196;-72
2021/10/26 05:12:22;;;;;;;37.17;27.17;;;;;;;10.84;87.62;101759.69;5009184;28;20182;-73
2021/10/26 05:14:48;;;;;;;35.93;27.67;;;;;;;10.83;87.48;101770.75;4992884;28;20207;-73
2021/10/26 05:17:33;;;;;;;35.20;26.33;;;;;;;10.83;87.66;101758.78;5010345;28;20252;-73
2021/10/26 05:20:19;;;;;;;36.43;26.10;;;;;;;10.83;87.83;101763.06;5010305;28;20238;-73
2021/10/26 05:23:05;;;;;;;36.60;26.03;;;;;;;10.86;87.57;101755.47;5010520;28;20309;-73
2021/10/26 05:25:51;;;;;;;38.70;26.70;;;;;;;10.85;87.58;101759.72;5008819;28;20203;-73
2021/10/26 05:28:19;;;;;;;36.83;27.70;;;;;;;10.86;87.61;101763.16;5009013;28;20191;-74
2021/10/26 05:30:44;;;;;;;36.57;26.30;;;;;;;10.87;87.37;101763.19;5010234;28;20198;-74
2021/10/26 05:33:10;;;;;;;36.97;27.57;;;;;;;10.85;87.80;101764.84;5008827;28;20206;-74
2021/10/26 05:35:35;;;;;;;39.80;27.10;;;;;;;10.86;87.76;101773.41;5008683;28;20199;-74
2021/10/26 05:38:01;;;;;;;35.23;26.07;;;;;;;10.88;87.62;101772.63;5010288;28;20194;-73
2021/10/26 05:40:26;;;;;;;37.97;26.77;;;;;;;10.88;88.34;101769.22;5008159;28;20187;-73
2021/10/26 05:42:51;;;;;;;34.87;26.67;;;;;;;10.87;88.40;101765.75;5005337;28;20711;-73
2021/10/26 05:45:18;;;;;;;34.93;26.50;;;;;;;10.88;87.94;101766.66;5010160;28;20560;-73
2021/10/26 05:47:45;;;;;;;36.00;26.00;;;;;;;10.92;88.08;101768.50;5008756;28;20194;-74
2021/10/26 05:50:10;;;;;;;36.00;26.67;;;;;;;10.97;88.46;101772.94;5008565;28;20191;-74
2021/10/26 05:52:37;;;;;;;35.30;27.07;;;;;;;10.99;88.57;101768.75;4992470;28;20691;-73
2021/10/26 05:55:02;;;;;;;40.33;28.53;;;;;;;11.04;88.76;101767.19;5009242;28;20219;-74
2021/10/26 05:57:28;;;;;;;40.20;29.60;;;;;;;11.09;88.93;101778.47;5007819;28;20191;-74
2021/10/26 05:59:54;;;;;;;42.00;29.17;;;;;;;11.13;89.10;101771.72;5007492;28;20742;-74
2021/10/26 06:02:19;;;;;;;39.37;28.93;;;;;;;11.13;88.82;101776.84;4991785;28;20249;-74
2021/10/26 06:04:45;;;;;;;37.47;27.27;;;;;;;11.15;89.07;101788.06;5015989;28;20265;-73
2021/10/26 06:07:11;;;;;;;38.77;28.90;;;;;;;11.18;88.68;101789.00;4990244;28;20215;-73
2021/10/26 06:09:36;;;;;;;38.97;28.73;;;;;;;11.22;88.59;101783.16;5013099;28;20215;-73
2021/10/26 06:12:04;;;;;;;41.30;28.33;;;;;;;11.22;88.55;101790.84;5007419;28;20179;-73
2021/10/26 06:14:32;;;;;;;42.67;29.17;;;;;;;11.24;88.58;101791.75;5018575;28;20202;-73
2021/10/26 06:17:01;;;;;;;41.07;28.53;;;;;;;11.25;88.46;101792.63;5015378;28;20195;-73
2021/10/26 06:19:30;;;;;;;38.57;27.93;;;;;;;11.25;88.28;101787.50;5013036;28;20218;-73
2021/10/26 06:21:55;;;;;;;39.00;28.10;;;;;;;11.30;88.38;101798.78;5014527;28;20254;-74
2021/10/26 06:24:21;;;;;;;38.00;27.50;;;;;;;11.45;88.66;101806.94;5012838;28;20211;-73
2021/10/26 06:26:46;;;;;;;39.57;27.77;;;;;;;11.36;88.34;101807.53;5007352;28;20187;-71
2021/10/26 06:29:12;;;;;;;36.53;27.23;;;;;;;11.35;88.55;101798.13;4976076;28;20231;-72
2021/10/26 06:31:57;;;;;;;36.27;27.10;;;;;;;11.34;88.21;101805.75;4984767;28;20222;-73
2021/10/26 06:34:23;;;;;;;39.33;28.17;;;;;;;11.34;88.12;101804.03;5019033;28;20632;-73
2021/10/26 06:36:49;;;;;;;38.77;28.07;;;;;;;11.34;88.15;101804.03;5009545;28;20278;-73
2021/10/26 06:39:14;;;;;;;36.87;28.03;;;;;;;11.37;88.22;101816.97;5009966;28;20188;-73
2021/10/26 06:41:39;;;;;;;38.20;28.90;;;;;;;11.37;88.06;101822.09;5004232;28;20257;-73
2021/10/26 06:44:34;;;;;;;40.53;29.03;;;;;;;11.41;88.03;101821.38;5006073;28;20310;-72
2021/10/26 06:47:18;;;;;;;42.17;29.10;;;;;;;11.43;88.13;101829.97;5006990;28;20261;-72
2021/10/26 06:50:08;;;;;;;42.20;30.97;;;;;;;11.43;87.73;101837.66;5007609;28;20208;-73
2021/10/26 06:52:52;;;;;;;43.53;29.93;;;;;;;11.47;87.92;101843.78;5010139;28;20265;-73
2021/10/26 06:55:44;;;;;;;38.70;28.47;;;;;;;11.48;87.94;101837.84;5007917;28;20211;-73
2021/10/26 06:58:36;;;;;;;44.53;29.10;;;;;;;11.50;87.53;101849.00;5006258;28;20203;-73
2021/10/26 07:01:19;;;;;;;41.87;30.07;;;;;;;11.52;87.88;101848.22;5009973;28;20638;-72
2021/10/26 07:03:56;;;;;;;41.60;29.30;;;;;;;11.58;87.19;101839.84;5005707;28;20221;-73
2021/10/26 07:06:24;;;;;;;37.60;27.73;;;;;;;11.62;87.17;101847.72;5009021;28;20202;-73
2021/10/26 07:08:59;;;;;;;38.70;28.43;;;;;;;11.68;86.75;101845.34;5012496;28;20218;-74
2021/10/26 07:11:33;;;;;;;37.97;27.63;;;;;;;11.69;86.99;101851.34;5012411;28;20179;-74
2021/10/26 07:14:05;;;;;;;37.77;27.47;;;;;;;11.68;86.75;101849.59;5026467;28;20207;-71
2021/10/26 07:16:32;;;;;;;36.17;26.20;;;;;;;11.71;86.36;101849.72;5015546;28;20185;-73
2021/10/26 07:18:57;;;;;;;35.30;25.50;;;;;;;11.73;86.24;101864.34;5026824;28;20637;-73
2021/10/26 07:21:23;;;;;;;36.73;26.63;;;;;;;11.74;86.23;101860.94;5016576;28;20207;-74
2021/10/26 07:24:08;;;;;;;34.33;26.00;;;;;;;11.77;85.90;101861.03;5011649;28;21621;-74
2021/10/26 07:26:57;;;;;;;35.97;27.13;;;;;;;11.81;86.07;101864.56;5010200;28;20223;-75
2021/10/26 07:29:22;;;;;;;34.17;25.80;;;;;;;11.83;86.17;101865.47;5011349;28;20226;-75
2021/10/26 07:31:48;;;;;;;34.67;25.93;;;;;;;11.82;86.22;101874.88;5017911;28;20194;-73
2021/10/26 07:34:15;;;;;;;33.90;25.93;;;;;;;11.81;86.04;101872.25;5016094;28;20203;-75
2021/10/26 07:36:44;;;;;;;35.37;25.13;;;;;;;11.81;85.90;101875.72;5009916;28;20191;-74
2021/10/26 07:39:32;;;;;;;38.73;27.00;;;;;;;11.84;85.69;101883.47;5015804;28;20191;-73
2021/10/26 07:41:59;;;;;;;38.13;26.43;;;;;;;11.86;85.73;101883.53;5009627;28;20221;-75
2021/10/26 07:44:57;;;;;;;36.17;27.07;;;;;;;11.85;85.65;101880.09;4988116;28;20216;-75
2021/10/26 07:47:25;;;;;;;32.40;25.57;;;;;;;11.88;86.17;101879.31;5011000;28;20188;-74
2021/10/26 07:49:53;;;;;;;40.80;26.13;;;;;;;11.86;86.06;101876.72;5026165;28;20242;-74
2021/10/26 07:52:22;;;;;;;37.27;27.13;;;;;;;11.89;85.63;101878.50;5013126;28;20591;-74
2021/10/26 07:54:53;;;;;;;36.40;26.87;;;;;;;11.92;85.69;101878.59;5016024;28;20205;-73
2021/10/26 07:57:24;;;;;;;36.30;26.03;;;;;;;11.91;85.94;101884.53;5009823;28;20192;-73
2021/10/26 07:59:51;;;;;;;39.23;26.47;;;;;;;11.94;85.70;101882.09;5017533;28;20191;-73
2021/10/26 08:02:17;;;;;;;35.77;26.30;;;;;;;11.96;85.75;101886.44;5009692;28;20577;-74
2021/10/26 08:05:01;;;;;;;34.80;25.90;;;;;;;11.99;85.61;101886.50;5010392;28;20230;-74
2021/10/26 08:07:26;;;;;;;36.27;26.13;;;;;;;12.02;85.28;101888.28;4993031;28;20199;-75
2021/10/26 08:09:55;;;;;;;35.27;26.70;;;;;;;12.04;85.31;101897.81;5009407;28;20182;-74
2021/10/26 08:12:22;;;;;;;35.23;25.70;;;;;;;12.07;85.21;101890.19;5014929;28;20234;-74
2021/10/26 08:14:49;;;;;;;34.23;25.37;;;;;;;12.14;84.89;101891.25;5010435;28;20215;-73
2021/10/26 08:17:18;;;;;;;32.00;23.57;;;;;;;12.21;84.59;101888.91;5009029;28;20326;-74
2021/10/26 08:19:46;;;;;;;30.80;24.13;;;;;;;12.26;84.22;101884.75;5008290;28;20744;-74
2021/10/26 08:22:17;;;;;;;28.13;23.50;;;;;;;12.32;83.89;101879.84;5025674;28;20207;-74
2021/10/26 08:24:48;;;;;;;31.33;24.23;;;;;;;12.48;83.51;101886.25;5025730;28;20206;-72
2021/10/26 08:27:16;;;;;;;34.07;24.77;;;;;;;12.58;83.66;101878.00;5016412;28;20206;-73
2021/10/26 08:32:43;;;;;;;32.17;24.40;;;;;;;12.61;82.94;101873.81;5008887;28;20692;-73
2021/10/26 08:37:38;;;;;;;28.90;21.77;;;;;;;12.88;81.96;101882.25;5008869;28;20179;-73
2021/10/26 08:40:07;;;;;;;30.80;22.93;;;;;;;13.04;81.53;101885.25;5024357;28;20210;-73
2021/10/26 08:42:33;;;;;;;29.77;23.03;;;;;;;13.06;80.34;101883.59;5025174;28;20211;-73
2021/10/26 08:45:02;;;;;;;30.77;23.07;;;;;;;12.99;81.67;101887.72;5008255;28;20219;-73
2021/10/26 08:47:29;;;;;;;26.27;21.83;;;;;;;13.07;80.59;101886.22;5015155;28;20290;-73
2021/10/26 08:50:18;;;;;;;29.17;21.30;;;;;;;13.11;81.08;101879.47;5009445;28;20214;-73
2021/10/26 08:52:46;;;;;;;28.33;22.10;;;;;;;12.91;81.72;101881.47;5016967;28;20226;-74
2021/10/26 08:55:40;;;;;;;29.67;21.73;;;;;;;12.93;80.68;101884.09;5008590;28;20195;-73
2021/10/26 08:58:29;;;;;;;29.77;22.70;;;;;;;12.84;81.40;101885.56;5008800;28;20199;-74
2021/10/26 09:00:58;;;;;;;29.20;22.13;;;;;;;12.90;81.31;101895.16;5008588;28;20237;-74
2021/10/26 09:03:29;;;;;;;32.03;23.17;;;;;;;12.90;81.32;101898.59;5008314;28;20200;-74
2021/10/26 09:05:54;;;;;;;34.67;23.93;;;;;;;12.84;81.71;101893.28;5015973;28;20747;-74
2021/10/26 09:08:22;;;;;;;30.33;23.30;;;;;;;12.93;81.25;101892.66;5015630;28;20274;-74
2021/10/26 09:10:52;;;;;;;28.07;22.20;;;;;;;13.14;80.69;101898.41;5005792;28;20182;-74
2021/10/26 09:17:00;;;;;;;28.97;20.87;;;;;;;13.35;79.51;101898.94;5009412;28;20207;-73
2021/10/26 09:19:44;;;;;;;29.67;21.00;;;;;;;13.26;78.76;101900.44;5009558;28;20245;-73
2021/10/26 09:22:24;;;;;;;27.40;20.60;;;;;;;13.45;78.11;101902.63;5017953;28;20231;-72
2021/10/26 09:25:05;;;;;;;25.80;19.33;;;;;;;13.41;78.72;101900.81;5008021;28;20297;-74
2021/10/26 09:27:30;;;;;;;23.57;18.87;;;;;;;13.44;78.22;101903.47;5006511;28;20197;-73
2021/10/26 09:30:00;;;;;;;25.40;19.93;;;;;;;14.49;74.76;101898.16;5023350;28;20191;-73
2021/10/26 09:32:40;;;;;;;25.77;18.07;;;;;;;14.44;74.47;101892.94;5009302;28;20805;-73
2021/10/26 09:35:08;;;;;;;21.47;17.43;;;;;;;15.12;71.64;101889.09;5009414;28;20857;-73
2021/10/26 09:37:37;;;;;;;23.00;18.13;;;;;;;14.36;73.46;101899.63;5009160;28;20180;-74
2021/10/26 09:40:06;;;;;;;22.17;18.23;;;;;;;14.43;74.85;101898.94;5007952;28;20211;-73
2021/10/26 09:42:49;;;;;;;20.73;17.87;;;;;;;14.20;74.50;101905.31;5008968;28;20216;-74
2021/10/26 09:45:24;;;;;;;23.03;18.07;;;;;;;14.25;74.70;101900.22;5008067;28;20550;-74
2021/10/26 09:47:53;;;;;;;22.53;18.13;;;;;;;14.51;73.91;101904.25;5008129;28;20274;-74
2021/10/26 09:50:19;;;;;;;23.20;18.37;;;;;;;17.14;66.81;101891.09;5003693;28;20616;-74
2021/10/26 09:52:47;;;;;;;23.37;17.33;;;;;;;18.31;61.33;101879.88;5007717;28;20214;-72
2021/10/26 09:55:22;;;;;;;22.40;16.27;;;;;;;18.40;59.66;101884.28;5006964;28;20695;-73
2021/10/26 09:58:06;;;;;;;20.07;15.37;;;;;;;16.90;64.23;101896.03;5004319;28;20186;-74
2021/10/26 10:00:37;;;;;;;20.10;15.57;;;;;;;17.22;63.37;101892.06;5006589;28;20206;-73
2021/10/26 10:03:05;;;;;;;20.03;16.57;;;;;;;16.35;65.84;101897.06;5006180;28;20199;-73
2021/10/26 10:05:41;;;;;;;19.90;15.40;;;;;;;16.53;66.84;101904.25;5005830;28;20215;-73
2021/10/26 10:08:21;;;;;;;21.03;16.73;;;;;;;16.31;65.48;101904.78;5006300;28;20223;-73
2021/10/26 10:10:52;;;;;;;21.17;16.97;;;;;;;15.55;68.44;101910.53;5012674;28;20656;-74
2021/10/26 10:13:17;;;;;;;19.93;16.80;;;;;;;15.81;67.27;101911.81;5006597;28;20694;-73
2021/10/26 10:15:47;;;;;;;20.43;15.87;;;;;;;15.54;67.84;101905.31;5007085;28;20195;-73
2021/10/26 10:18:21;;;;;;;20.20;15.60;;;;;;;15.00;69.52;101905.22;5006754;28;20242;-73
2021/10/26 10:20:51;;;;;;;22.33;16.00;;;;;;;15.03;70.17;101913.00;5003264;28;20252;-73
2021/10/26 10:23:18;;;;;;;17.63;15.00;;;;;;;14.76;70.04;101920.22;5009187;28;20218;-73
2021/10/26 10:25:47;;;;;;;17.03;13.83;;;;;;;14.56;70.26;101921.53;5010542;28;20180;-73
2021/10/26 10:28:18;;;;;;;16.73;14.27;;;;;;;15.14;69.41;101913.22;5011070;28;20257;-73
2021/10/26 10:30:44;;;;;;;17.10;14.50;;;;;;;14.74;70.29;101924.47;5011780;28;20194;-72
2021/10/26 10:33:10;;;;;;;17.03;13.37;;;;;;;14.78;70.63;101915.09;5012653;28;20191;-72
2021/10/26 10:35:37;;;;;;;18.23;13.20;;;;;;;16.13;66.71;101907.97;5027575;28;20202;-72
2021/10/26 10:38:04;;;;;;;12.83;11.10;;;;;;;21.41;50.75;101888.13;5010390;28;20206;-73
2021/10/26 10:40:32;;;;;;;14.07;10.87;;;;;;;23.99;43.27;101871.63;5012197;28;20190;-73
2021/10/26 10:42:58;;;;;;;11.02;9.73;;;;;;;25.65;40.09;101860.91;5012431;28;20206;-72
2021/10/26 10:45:26;;;;;;;11.65;9.60;;;;;;;24.98;40.19;101876.53;5012385;28;20182;-73
2021/10/26 10:47:56;;;;;;;10.30;9.20;;;;;;;24.49;40.30;101879.34;5011120;28;20221;-72
2021/10/26 10:50:30;;;;;;;9.77;8.60;;;;;;;23.93;41.69;101879.59;5010822;28;20183;-72
2021/10/26 10:53:06;;;;;;;10.57;9.00;;;;;;;25.22;38.37;101881.19;5009707;28;20676;-72
2021/10/26 10:55:33;;;;;;;8.55;7.75;;;;;;;26.69;36.64;101864.94;5012159;28;20210;-73
2021/10/26 10:58:41;;;;;;;8.50;7.10;;;;;;;24.51;39.13;101859.22;5012182;28;20187;-72
2021/10/26 11:01:34;;;;;;;9.68;6.50;;;;;;;24.16;38.73;101868.66;4992319;28;20254;-72
2021/10/26 11:04:19;;;;;;;7.30;6.40;;;;;;;26.30;36.44;101852.94;5012053;28;20226;-72
2021/10/26 11:06:44;;;;;;;9.18;8.25;;;;;;;25.81;36.43;101863.06;5011855;28;20187;-72
2021/10/26 11:09:27;;;;;;;9.32;8.32;;;;;;;22.99;42.30;101878.53;5012400;28;20230;-72
2021/10/26 11:12:27;;;;;;;9.45;8.15;;;;;;;23.80;40.36;101878.06;5011730;28;20187;-71
2021/10/26 11:14:55;;;;;;;9.82;8.68;;;;;;;24.20;39.22;101881.69;5011395;28;20245;-72
2021/10/26 11:17:49;;;;;;;11.05;8.55;;;;;;;27.00;35.39;101851.69;5010930;28;20230;-72
2021/10/26 11:20:29;;;;;;;9.23;8.13;;;;;;;26.26;35.69;101859.22;5011957;28;20282;-72
2021/10/26 11:23:06;;;;;;;10.30;9.20;;;;;;;26.50;36.36;101861.13;5010676;28;20195;-72
2021/10/26 11:25:40;;;;;;;12.40;11.10;;;;;;;26.35;36.37;101863.31;5009341;28;20645;-72
2021/10/26 11:28:18;;;;;;;8.98;8.15;;;;;;;28.17;33.07;101861.69;5008260;28;20195;-73
2021/10/26 11:30:44;;;;;;;12.73;11.43;;;;;;;23.75;39.74;101872.06;5011790;28;20214;-73
2021/10/26 11:33:12;;;;;;;12.05;10.80;;;;;;;24.10;39.60;101861.81;4993894;28;20183;-72
2021/10/26 11:35:47;;;;;;;12.77;11.23;;;;;;;22.50;43.82;101872.25;5012301;28;20334;-72